createdAt,value
2019-06-20T00:01:29.296Z,4.95
2019-06-20T00:03:58.604Z,5.60
2019-06-20T00:06:27.992Z,5.05
2019-06-20T00:08:57.579Z,4.70
2019-06-20T00:11:27.159Z,4.22
2019-06-20T00:13:56.549Z,4.47
2019-06-20T00:16:26.137Z,4.75
2019-06-20T00:18:55.511Z,4.67
2019-06-20T00:21:25.070Z,4.33
2019-06-20T00:23:54.393Z,4.87
2019-06-20T00:26:23.719Z,4.85
2019-06-20T00:28:53.028Z,5.05
2019-06-20T00:31:22.397Z,4.90
2019-06-20T00:33:51.995Z,4.72
2019-06-20T00:36:21.545Z,5.00
2019-06-20T00:38:50.859Z,4.58
2019-06-20T00:41:20.160Z,4.45
2019-06-20T00:43:49.734Z,4.58
2019-06-20T00:46:19.279Z,4.35
2019-06-20T00:48:48.824Z,5.10
2019-06-20T00:51:18.380Z,5.05
2019-06-20T00:53:47.693Z,5.35
2019-06-20T00:56:17.004Z,5.87
2019-06-20T00:58:46.323Z,5.95
2019-06-20T01:01:15.656Z,6.28
2019-06-20T01:03:45.239Z,5.80
2019-06-20T01:06:14.796Z,6.35
2019-06-20T01:08:44.355Z,7.08
2019-06-20T01:11:13.983Z,6.65
2019-06-20T01:13:44.267Z,8.38
2019-06-20T01:16:13.600Z,8.68
2019-06-20T01:18:43.163Z,10.15
2019-06-20T01:21:12.808Z,10.63
2019-06-20T01:23:42.131Z,11.97
2019-06-20T01:26:11.771Z,13.80
2019-06-20T01:28:41.109Z,13.70
2019-06-20T01:31:10.444Z,14.55
2019-06-20T01:33:40.029Z,14.58
2019-06-20T01:36:09.603Z,14.87
2019-06-20T01:38:39.175Z,15.70
2019-06-20T01:41:08.752Z,17.70
2019-06-20T01:43:50.016Z,20.75
2019-06-20T01:46:09.107Z,21.05
2019-06-20T01:48:38.439Z,23.20
2019-06-20T01:51:07.781Z,23.02
2019-06-20T01:53:37.107Z,21.90
2019-06-20T01:56:07.596Z,24.47
2019-06-20T01:58:37.022Z,26.40
2019-06-20T02:01:06.483Z,26.45
2019-06-20T02:03:35.806Z,27.95
2019-06-20T02:06:05.190Z,28.65
2019-06-20T02:08:34.524Z,30.17
2019-06-20T02:11:03.994Z,29.77
2019-06-20T02:13:33.349Z,32.60
2019-06-20T02:16:02.803Z,32.42
2019-06-20T02:18:32.379Z,32.20
2019-06-20T02:21:02.104Z,32.98
2019-06-20T02:23:31.522Z,33.83
2019-06-20T02:26:00.894Z,34.33
2019-06-20T02:28:30.230Z,35.58
2019-06-20T02:30:59.555Z,37.05
2019-06-20T02:33:29.122Z,39.05
2019-06-20T02:35:58.580Z,36.00
2019-06-20T02:38:28.116Z,37.53
2019-06-20T02:40:57.463Z,36.85
2019-06-20T02:43:27.054Z,36.75
2019-06-20T02:45:56.471Z,35.23
2019-06-20T02:48:25.866Z,32.20
2019-06-20T02:50:55.249Z,32.00
2019-06-20T02:53:24.582Z,31.62
2019-06-20T02:55:53.979Z,31.40
2019-06-20T02:58:23.327Z,30.85
2019-06-20T03:00:59.508Z,30.20
2019-06-20T03:03:29.517Z,29.75
2019-06-20T03:05:59.807Z,28.62
2019-06-20T03:08:29.286Z,30.17
2019-06-20T03:10:59.058Z,27.90
2019-06-20T03:13:28.692Z,28.60
2019-06-20T03:15:58.128Z,27.05
2019-06-20T03:18:27.454Z,27.98
2019-06-20T03:20:57.109Z,28.20
2019-06-20T03:23:26.526Z,28.65
2019-06-20T03:25:56.895Z,27.42
2019-06-20T03:28:26.565Z,27.60
2019-06-20T03:30:55.889Z,28.90
2019-06-20T03:33:25.501Z,29.52
2019-06-20T03:35:55.101Z,30.50
2019-06-20T03:38:24.685Z,30.32
2019-06-20T03:40:54.276Z,33.63
2019-06-20T03:43:23.620Z,34.90
2019-06-20T03:45:52.944Z,32.88
2019-06-20T03:48:22.619Z,34.03
2019-06-20T03:50:51.944Z,34.43
2019-06-20T03:53:21.542Z,35.70
2019-06-20T03:55:50.870Z,36.93
2019-06-20T03:58:20.245Z,37.23
2019-06-20T04:00:49.596Z,37.23
2019-06-20T04:03:19.900Z,35.85
2019-06-20T04:05:49.303Z,36.90
2019-06-20T04:08:18.656Z,35.13
2019-06-20T04:10:47.988Z,34.95
2019-06-20T04:13:17.585Z,35.63
2019-06-20T04:15:46.946Z,35.63
2019-06-20T04:18:16.323Z,34.73
2019-06-20T04:20:45.655Z,34.58
2019-06-20T04:23:15.237Z,33.85
2019-06-20T04:25:44.583Z,33.90
2019-06-20T04:28:14.192Z,34.70
2019-06-20T04:30:43.612Z,34.13
2019-06-20T04:33:13.220Z,34.60
2019-06-20T04:35:42.567Z,34.05
2019-06-20T04:38:12.150Z,33.55
2019-06-20T04:40:42.148Z,34.15
2019-06-20T04:43:11.744Z,32.75
2019-06-20T04:45:43.223Z,31.45
2019-06-20T04:48:12.810Z,31.80
2019-06-20T04:50:42.219Z,31.17
2019-06-20T04:53:11.558Z,30.55
2019-06-20T04:55:40.977Z,31.37
2019-06-20T04:58:10.359Z,30.60
2019-06-20T05:00:39.762Z,28.52
2019-06-20T05:03:09.082Z,31.00
2019-06-20T05:05:38.435Z,29.67
2019-06-20T05:08:08.142Z,31.55
2019-06-20T05:10:37.479Z,29.60
2019-06-20T05:13:06.974Z,29.72
2019-06-20T05:15:51.521Z,30.68
2019-06-20T05:18:07.355Z,31.37
2019-06-20T05:20:37.013Z,30.20
2019-06-20T05:23:06.745Z,31.20
2019-06-20T05:25:36.426Z,31.33
2019-06-20T05:28:06.143Z,32.83
2019-06-20T05:30:35.551Z,31.52
2019-06-20T05:33:04.880Z,32.80
2019-06-20T05:35:34.274Z,31.20
2019-06-20T05:38:03.681Z,30.27
2019-06-20T05:40:36.882Z,32.38
2019-06-20T05:43:05.364Z,31.93
2019-06-20T05:45:34.796Z,31.23
2019-06-20T05:48:05.227Z,32.05
2019-06-20T05:50:34.648Z,29.15
2019-06-20T05:53:04.234Z,27.90
2019-06-20T05:55:33.734Z,27.37
2019-06-20T05:58:03.145Z,24.98
2019-06-20T06:00:32.644Z,22.45
2019-06-20T06:03:06.845Z,21.12
2019-06-20T06:05:34.072Z,19.02
2019-06-20T06:08:03.827Z,21.40
2019-06-20T06:10:33.281Z,21.17
2019-06-20T06:13:03.167Z,19.85
2019-06-20T06:15:32.833Z,19.65
2019-06-20T06:18:02.452Z,19.32
2019-06-20T06:20:31.995Z,20.30
2019-06-20T06:23:01.407Z,20.82
2019-06-20T06:25:30.733Z,21.17
2019-06-20T06:28:00.437Z,23.00
2019-06-20T06:30:30.209Z,22.70
2019-06-20T06:32:59.560Z,21.80
2019-06-20T06:35:29.026Z,22.52
2019-06-20T06:37:58.438Z,20.70
2019-06-20T06:40:28.119Z,21.82
2019-06-20T06:42:57.931Z,22.35
2019-06-20T06:45:27.509Z,20.27
2019-06-20T06:47:57.037Z,20.97
2019-06-20T06:50:27.639Z,20.95
2019-06-20T06:52:57.450Z,21.60
2019-06-20T06:55:27.863Z,22.20
2019-06-20T06:57:57.856Z,21.05
2019-06-20T07:00:27.407Z,21.90
2019-06-20T07:02:56.924Z,22.55
2019-06-20T07:05:26.826Z,21.77
2019-06-20T07:07:56.251Z,21.30
2019-06-20T07:10:25.834Z,21.12
2019-06-20T07:12:55.322Z,19.32
2019-06-20T07:15:25.231Z,19.80
2019-06-20T07:17:55.092Z,17.73
2019-06-20T07:20:25.145Z,16.80
2019-06-20T07:22:54.708Z,16.55
2019-06-20T07:25:24.074Z,16.12
2019-06-20T07:27:53.598Z,18.20
2019-06-20T07:30:24.483Z,19.05
2019-06-20T07:32:54.135Z,18.20
2019-06-20T07:35:23.576Z,18.65
2019-06-20T07:37:53.382Z,18.73
2019-06-20T07:40:23.551Z,17.10
2019-06-20T07:42:53.407Z,18.07
2019-06-20T07:45:27.566Z,19.67
2019-06-20T07:47:57.194Z,19.37
2019-06-20T07:50:26.748Z,19.52
2019-06-20T07:53:01.925Z,19.15
2019-06-20T07:55:27.428Z,19.98
2019-06-20T07:57:57.821Z,18.92
2019-06-20T08:00:27.529Z,19.05
2019-06-20T08:02:57.055Z,19.12
2019-06-20T08:05:26.513Z,18.40
2019-06-20T08:07:55.937Z,18.37
2019-06-20T08:10:25.942Z,18.07
2019-06-20T08:12:55.416Z,18.50
2019-06-20T08:15:25.264Z,17.45
2019-06-20T08:17:54.952Z,17.12
2019-06-20T08:20:24.972Z,16.32
2019-06-20T08:22:54.684Z,15.72
2019-06-20T08:25:24.486Z,16.23
2019-06-20T08:27:53.913Z,15.90
2019-06-20T08:30:28.647Z,16.27
2019-06-20T08:33:01.248Z,14.95
2019-06-20T08:35:31.741Z,15.32
2019-06-20T08:38:03.501Z,12.85
2019-06-20T08:40:35.822Z,14.28
2019-06-20T08:43:06.405Z,14.63
2019-06-20T08:55:24.712Z,13.25
2019-06-20T08:57:55.734Z,13.83
2019-06-20T09:00:27.853Z,13.30
2019-06-20T09:02:58.618Z,11.65
2019-06-20T09:05:30.956Z,10.90
2019-06-20T09:10:33.820Z,10.00
2019-06-20T09:13:03.786Z,9.75
2019-06-20T09:15:33.418Z,9.33
2019-06-20T09:18:30.060Z,7.45
2019-06-20T09:21:00.287Z,8.88
2019-06-20T09:23:29.962Z,7.33
2019-06-20T09:25:59.681Z,7.28
2019-06-20T09:31:42.846Z,8.23
2019-06-20T09:34:12.461Z,7.28
2019-06-20T09:36:41.872Z,7.78
2019-06-20T09:39:11.258Z,8.58
2019-06-20T09:41:41.075Z,8.93
2019-06-20T09:44:10.487Z,8.55
2019-06-20T09:46:40.104Z,9.58
2019-06-20T09:49:09.808Z,8.85
2019-06-20T09:51:39.309Z,9.83
2019-06-20T09:54:08.823Z,9.35
2019-06-20T09:56:38.505Z,9.75
2019-06-20T09:59:07.989Z,9.95
2019-06-20T10:01:37.786Z,9.43
2019-06-20T10:04:07.511Z,10.70
2019-06-20T10:06:36.849Z,9.98
2019-06-20T10:09:08.800Z,10.40
2019-06-20T10:11:38.678Z,10.75
2019-06-20T10:14:09.545Z,10.18
2019-06-20T10:16:45.848Z,11.08
2019-06-20T10:19:12.665Z,10.80
2019-06-20T10:21:41.373Z,11.75
2019-06-20T10:24:10.838Z,12.28
2019-06-20T10:26:40.564Z,12.40
2019-06-20T10:29:10.391Z,11.85
2019-06-20T10:31:39.767Z,11.85
2019-06-20T10:34:09.504Z,11.43
2019-06-20T10:36:38.914Z,12.07
2019-06-20T10:39:11.389Z,11.10
2019-06-20T10:41:41.193Z,12.78
2019-06-20T10:44:10.608Z,12.20
2019-06-20T10:46:40.265Z,12.23
2019-06-20T10:49:10.051Z,10.98
2019-06-20T10:51:42.548Z,10.38
2019-06-20T10:54:12.688Z,10.90
2019-06-20T10:56:43.689Z,12.40
2019-06-20T10:59:13.543Z,13.28
2019-06-20T11:01:44.302Z,11.97
2019-06-20T11:04:13.838Z,11.85
2019-06-20T11:06:43.241Z,12.45
2019-06-20T11:09:13.845Z,11.45
2019-06-20T11:11:44.690Z,11.18
2019-06-20T11:14:14.294Z,10.43
2019-06-20T11:19:41.459Z,11.73
2019-06-20T11:22:11.035Z,13.43
2019-06-20T11:24:40.908Z,12.53
2019-06-20T11:27:10.459Z,12.73
2019-06-20T11:29:41.563Z,12.00
2019-06-20T11:32:11.298Z,12.28
2019-06-20T11:34:42.555Z,11.22
2019-06-20T11:37:12.277Z,11.57
2019-06-20T11:39:41.621Z,11.53
2019-06-20T11:42:11.767Z,9.55
2019-06-20T11:44:43.520Z,11.83
2019-06-20T11:50:21.105Z,9.40
2019-06-20T11:53:02.040Z,8.43
2019-06-20T11:55:38.964Z,8.98
2019-06-20T11:58:08.920Z,8.48
2019-06-20T12:00:38.847Z,9.18
2019-06-20T12:03:11.454Z,8.95
2019-06-20T12:05:44.865Z,6.92
2019-06-20T12:08:19.073Z,6.42
2019-06-20T12:10:49.491Z,7.92
2019-06-20T12:13:19.342Z,7.12
2019-06-20T12:15:51.090Z,7.00
2019-06-20T12:18:20.842Z,5.83
2019-06-20T12:21:02.716Z,6.40
2019-06-20T12:23:33.077Z,6.20
2019-06-20T12:26:02.802Z,7.10
2019-06-20T12:28:32.618Z,6.45
2019-06-20T12:31:18.622Z,6.42
2019-06-20T12:36:46.909Z,5.87
2019-06-20T12:39:25.906Z,6.10
2019-06-20T12:41:55.956Z,6.20
2019-06-20T12:44:27.554Z,7.42
2019-06-20T12:46:57.138Z,6.60
2019-06-20T12:49:26.667Z,6.72
2019-06-20T12:52:03.910Z,6.65
2019-06-20T12:55:06.453Z,6.37
2019-06-20T12:58:00.733Z,6.15
2019-06-20T13:00:41.618Z,6.42
2019-06-20T13:03:22.239Z,6.65
2019-06-20T13:06:16.575Z,7.10
2019-06-20T15:00:22.338Z,7.22
2019-06-20T15:02:55.854Z,7.22
2019-06-20T15:05:23.689Z,7.80
2019-06-20T15:07:53.915Z,8.40
2019-06-20T15:10:24.243Z,7.97
2019-06-20T15:12:54.226Z,6.22
2019-06-20T15:15:24.832Z,10.58
2019-06-20T15:17:57.456Z,7.50
2019-06-20T15:20:25.563Z,7.03
2019-06-20T15:22:56.415Z,7.05
2019-06-20T15:25:26.217Z,7.50
2019-06-20T15:27:57.036Z,7.20
2019-06-20T15:30:27.145Z,7.90
2019-06-20T15:33:07.466Z,7.47
2019-06-20T15:35:27.971Z,7.80
2019-06-20T15:37:57.879Z,6.95
2019-06-20T15:40:27.632Z,7.42
2019-06-20T15:42:58.762Z,8.03
2019-06-20T15:45:28.912Z,7.40
2019-06-20T15:47:59.155Z,7.45
2019-06-20T15:50:28.976Z,7.50
2019-06-20T15:52:58.962Z,7.75
2019-06-20T15:55:30.234Z,7.60
2019-06-20T15:58:02.590Z,7.42
2019-06-20T16:00:33.482Z,6.92
2019-06-20T16:03:09.930Z,8.20
2019-06-20T16:05:34.631Z,11.55
2019-06-20T16:08:04.520Z,12.10
2019-06-20T16:10:34.148Z,15.15
2019-06-20T16:13:03.731Z,16.67
2019-06-20T16:15:34.191Z,16.85
2019-06-20T16:18:03.787Z,17.92
2019-06-20T16:20:33.401Z,18.95
2019-06-20T16:23:02.948Z,19.90
2019-06-20T16:25:32.688Z,20.45
2019-06-20T16:28:02.461Z,19.07
2019-06-20T16:30:33.729Z,17.82
2019-06-20T16:33:03.396Z,19.02
2019-06-20T16:35:42.946Z,19.20
2019-06-20T16:38:12.837Z,17.27
2019-06-20T16:40:45.230Z,19.02
2019-06-20T16:43:15.146Z,18.55
2019-06-20T16:45:44.849Z,17.30
2019-06-20T16:48:14.347Z,14.05
2019-06-20T16:50:44.057Z,13.00
2019-06-20T16:53:14.000Z,12.63
2019-06-20T16:55:44.001Z,11.78
2019-06-20T16:58:13.710Z,10.32
2019-06-20T17:00:43.599Z,11.35
2019-06-20T17:03:13.377Z,11.73
2019-06-20T17:05:43.347Z,11.50
2019-06-20T17:08:13.095Z,10.53
2019-06-20T17:10:42.929Z,10.05
2019-06-20T17:13:12.744Z,9.43
2019-06-20T17:15:42.300Z,9.70
2019-06-20T17:18:11.884Z,9.58
2019-06-20T17:21:03.976Z,9.65
2019-06-20T17:23:33.785Z,11.20
2019-06-20T17:26:03.373Z,10.35
2019-06-20T17:28:32.779Z,9.95
2019-06-20T17:31:02.231Z,8.85
2019-06-20T17:33:32.886Z,9.38
2019-06-20T17:36:17.347Z,8.80
2019-06-20T17:38:33.648Z,10.03
2019-06-20T17:41:13.059Z,11.95
2019-06-20T17:44:02.508Z,11.05
2019-06-20T17:46:52.353Z,11.78
2019-06-20T17:49:33.820Z,12.15
2019-06-20T17:55:42.072Z,13.75
2019-06-20T17:58:47.364Z,13.05
2019-06-20T18:02:58.335Z,13.98
2019-06-20T18:22:58.691Z,16.20
2019-06-20T18:25:31.560Z,16.90
2019-06-20T18:27:59.548Z,17.90
2019-06-20T18:30:34.794Z,18.85
2019-06-20T18:51:38.191Z,18.10
2019-06-20T18:54:07.948Z,18.62
2019-06-20T18:56:37.542Z,20.00
2019-06-20T18:59:07.213Z,17.77
2019-06-20T19:01:36.832Z,18.00
2019-06-20T19:04:06.272Z,17.67
2019-06-20T19:52:10.190Z,22.20
2019-06-20T19:54:40.396Z,25.10
2019-06-20T19:57:10.112Z,25.68
2019-06-20T19:59:39.516Z,26.10
2019-06-20T20:02:10.552Z,26.70
2019-06-20T20:04:40.346Z,28.12
2019-06-20T20:07:10.142Z,28.12
2019-06-20T20:09:39.584Z,29.65
2019-06-20T20:12:08.998Z,30.23
2019-06-20T20:14:38.600Z,29.55
2019-06-20T20:17:07.942Z,30.30
2019-06-20T20:19:37.559Z,29.50
2019-06-20T20:22:07.078Z,29.52
2019-06-20T20:24:36.426Z,29.10
2019-06-20T20:27:05.845Z,29.95
2019-06-20T20:29:36.198Z,28.23
2019-06-20T20:32:06.118Z,27.87
2019-06-20T20:34:35.718Z,29.35
2019-06-20T20:37:05.853Z,27.55
2019-06-20T20:39:35.483Z,28.27
2019-06-20T20:42:05.688Z,31.48
2019-06-20T20:44:35.002Z,28.87
2019-06-20T20:47:04.619Z,30.15
2019-06-20T20:49:34.216Z,28.02
2019-06-20T20:52:03.629Z,27.52
2019-06-20T20:54:33.295Z,29.37
2019-06-20T20:57:02.657Z,29.72
2019-06-20T20:59:32.283Z,28.32
2019-06-20T21:02:01.857Z,29.57
2019-06-20T21:04:31.269Z,29.63
2019-06-20T21:07:00.855Z,30.30
2019-06-20T21:09:30.436Z,28.87
2019-06-20T21:12:00.035Z,28.15
2019-06-20T21:14:29.454Z,26.57
2019-06-20T21:16:59.133Z,26.65
2019-06-20T21:19:28.884Z,26.57
2019-06-20T21:21:58.246Z,26.30
2019-06-20T21:24:28.584Z,28.73
2019-06-20T21:26:58.047Z,30.40
2019-06-20T21:29:27.777Z,29.07
2019-06-20T21:31:57.439Z,32.65
2019-06-20T21:34:26.866Z,31.27
2019-06-20T21:36:56.307Z,32.45
2019-06-20T21:39:25.894Z,30.97
2019-06-20T21:41:55.554Z,30.68
2019-06-20T21:44:25.137Z,30.97
2019-06-20T21:46:54.532Z,32.17
2019-06-20T21:49:24.132Z,32.78
2019-06-20T21:51:53.754Z,31.45
2019-06-20T21:54:23.092Z,29.63
2019-06-20T21:56:52.690Z,32.55
2019-06-20T21:59:22.044Z,35.65
2019-06-20T22:01:51.633Z,34.60
2019-06-20T22:04:21.054Z,35.78
2019-06-20T22:06:50.617Z,36.48
2019-06-20T22:09:20.289Z,38.13
2019-06-20T22:11:50.128Z,37.95
2019-06-20T22:14:19.467Z,36.83
2019-06-20T22:16:48.867Z,35.88
2019-06-20T22:19:18.285Z,33.63
2019-06-20T22:21:47.698Z,33.38
2019-06-20T22:24:17.111Z,34.48
2019-06-20T22:26:46.450Z,35.50
2019-06-20T22:29:16.830Z,35.50
2019-06-20T22:31:46.226Z,32.55
2019-06-20T22:34:15.848Z,34.53
2019-06-20T22:36:45.177Z,36.77
2019-06-20T22:39:14.780Z,39.27
2019-06-20T22:41:44.370Z,38.58
2019-06-20T22:44:14.047Z,35.65
2019-06-20T22:46:43.645Z,33.65
2019-06-20T22:49:13.545Z,32.90
2019-06-20T22:51:42.874Z,31.77
2019-06-20T22:54:12.210Z,37.40
2019-06-20T22:56:41.603Z,38.38
2019-06-20T22:59:11.254Z,38.60
2019-06-20T23:01:40.665Z,35.60
2019-06-20T23:04:11.181Z,38.50
2019-06-20T23:06:55.321Z,38.92
2019-06-20T23:09:11.819Z,35.80
2019-06-20T23:11:41.442Z,33.30
2019-06-20T23:14:11.777Z,28.80
2019-06-20T23:16:41.104Z,23.80
2019-06-20T23:19:10.457Z,21.40
2019-06-20T23:21:39.840Z,19.57
2019-06-20T23:24:09.267Z,18.15
2019-06-20T23:26:38.842Z,18.27
2019-06-20T23:29:09.823Z,16.52
2019-06-20T23:31:39.428Z,17.35
2019-06-20T23:34:08.759Z,17.15
2019-06-20T23:36:38.116Z,16.65
2019-06-20T23:39:07.839Z,15.53
2019-06-20T23:41:37.505Z,15.03
2019-06-20T23:44:06.953Z,15.20
2019-06-20T23:46:36.366Z,14.65
2019-06-20T23:49:05.791Z,13.43
2019-06-20T23:51:43.259Z,14.00
2019-06-20T23:54:12.674Z,13.00
2019-06-20T23:56:42.472Z,13.95
2019-06-20T23:59:11.907Z,14.40
